createdAt,value
2023-03-19T00:03:59.011Z,97.72
2023-03-19T00:08:01.897Z,95.77
2023-03-19T00:12:05.446Z,93.70
2023-03-19T00:16:09.191Z,96.64
2023-03-19T00:20:20.680Z,95.17
2023-03-19T00:24:24.970Z,92.03
2023-03-19T00:28:28.133Z,93.20
2023-03-19T00:32:33.589Z,91.54
2023-03-19T00:36:38.613Z,94.18
2023-03-19T00:40:41.491Z,93.35
2023-03-19T00:44:44.557Z,94.06
2023-03-19T00:48:47.463Z,93.07
2023-03-19T00:52:52.222Z,95.68
2023-03-19T00:56:54.994Z,94.19
2023-03-19T01:01:01.052Z,96.72
2023-03-19T01:05:04.157Z,96.11
2023-03-19T01:09:08.788Z,92.06
2023-03-19T01:13:12.448Z,90.58
2023-03-19T01:17:15.397Z,92.53
2023-03-19T01:21:18.866Z,92.30
2023-03-19T01:25:24.100Z,91.24
2023-03-19T01:29:27.265Z,90.97
2023-03-19T01:33:39.621Z,94.34
2023-03-19T01:37:42.804Z,92.86
2023-03-19T01:41:47.968Z,91.56
2023-03-19T01:45:51.926Z,94.73
2023-03-19T01:49:57.251Z,94.77
2023-03-19T01:54:01.923Z,96.10
2023-03-19T01:58:07.818Z,94.09
2023-03-19T02:02:22.121Z,92.90
2023-03-19T02:06:27.327Z,94.16
2023-03-19T02:10:31.145Z,94.77
2023-03-19T02:14:37.208Z,94.89
2023-03-19T02:18:40.441Z,93.50
2023-03-19T02:22:48.713Z,93.09
2023-03-19T02:26:53.446Z,93.23
2023-03-19T02:30:56.888Z,94.44
2023-03-19T02:35:00.664Z,93.26
2023-03-19T02:39:05.891Z,91.40
2023-03-19T02:43:14.834Z,94.79
2023-03-19T02:47:18.174Z,96.84
2023-03-19T02:51:21.010Z,94.85
2023-03-19T02:55:24.079Z,93.85
2023-03-19T02:59:28.624Z,93.07
2023-03-19T03:03:33.508Z,96.00
2023-03-19T03:07:36.363Z,97.88
2023-03-19T03:11:41.241Z,96.37
2023-03-19T03:15:49.686Z,93.41
2023-03-19T03:19:52.462Z,95.60
2023-03-19T03:23:55.181Z,95.04
2023-03-19T03:27:58.357Z,96.18
2023-03-19T03:32:02.626Z,97.61
2023-03-19T03:36:07.157Z,97.72
2023-03-19T03:40:11.494Z,95.91
2023-03-19T03:44:14.447Z,96.41
2023-03-19T03:48:19.311Z,96.70
2023-03-19T03:52:22.735Z,96.04
2023-03-19T03:56:26.186Z,94.42
2023-03-19T04:00:32.477Z,97.20
2023-03-19T04:04:37.294Z,97.80
2023-03-19T04:08:40.202Z,96.74
2023-03-19T04:12:43.479Z,96.89
2023-03-19T04:16:47.612Z,97.29
2023-03-19T04:20:52.837Z,98.76
2023-03-19T04:24:55.678Z,99.52
2023-03-19T04:29:00.042Z,99.37
2023-03-19T04:33:04.749Z,99.93
2023-03-19T04:37:11.446Z,98.99
2023-03-19T04:41:16.316Z,99.13
2023-03-19T04:45:19.186Z,99.80
2023-03-19T04:49:22.144Z,99.74
2023-03-19T04:53:26.711Z,99.67
2023-03-19T04:57:32.824Z,99.94
2023-03-19T05:01:36.608Z,99.11
2023-03-19T05:05:39.492Z,98.31
2023-03-19T05:09:44.013Z,99.11
2023-03-19T05:13:47.069Z,99.94
2023-03-19T05:17:51.242Z,99.85
2023-03-19T05:21:54.072Z,99.93
2023-03-19T05:26:00.238Z,99.73
2023-03-19T05:30:03.093Z,99.74
2023-03-19T05:34:05.939Z,97.85
2023-03-19T05:38:09.594Z,98.49
2023-03-19T05:42:14.889Z,95.99
2023-03-19T05:46:19.085Z,97.80
2023-03-19T05:50:22.069Z,98.31
2023-03-19T05:54:24.998Z,97.22
2023-03-19T05:58:29.615Z,96.79
2023-03-19T06:02:32.523Z,95.77
2023-03-19T06:06:36.563Z,95.28
2023-03-19T06:10:39.192Z,95.72
2023-03-19T06:14:44.497Z,95.62
2023-03-19T06:18:49.760Z,96.31
2023-03-19T06:22:52.883Z,98.48
2023-03-19T06:26:55.853Z,98.35
2023-03-19T06:31:00.348Z,97.99
2023-03-19T06:35:03.149Z,98.21
2023-03-19T06:39:06.056Z,98.27
2023-03-19T06:43:08.979Z,98.61
2023-03-19T06:47:15.374Z,96.82
2023-03-19T06:51:18.209Z,98.17
2023-03-19T06:55:21.104Z,97.67
2023-03-19T06:59:24.066Z,97.53
2023-03-19T07:03:28.510Z,97.15
2023-03-19T07:07:31.646Z,98.26
2023-03-19T07:11:35.917Z,97.16
2023-03-19T07:15:38.854Z,97.56
2023-03-19T07:19:43.359Z,98.16
2023-03-19T07:23:47.015Z,97.85
2023-03-19T07:27:50.152Z,97.99
2023-03-19T07:31:53.005Z,97.35
2023-03-19T07:35:57.358Z,96.72
2023-03-19T07:40:00.376Z,96.74
2023-03-19T07:44:03.329Z,96.07
2023-03-19T07:48:07.402Z,95.48
2023-03-19T07:52:13.513Z,95.31
2023-03-19T07:56:16.723Z,95.60
2023-03-19T08:00:21.448Z,95.87
2023-03-19T08:04:24.401Z,94.41
2023-03-19T08:08:28.639Z,94.45
2023-03-19T08:12:31.965Z,95.34
2023-03-19T08:16:34.868Z,94.20
2023-03-19T08:20:38.248Z,92.84
2023-03-19T08:24:44.642Z,91.37
2023-03-19T08:28:47.487Z,91.84
2023-03-19T08:32:51.413Z,92.45
2023-03-19T08:36:54.779Z,93.02
2023-03-19T08:41:02.526Z,92.60
2023-03-19T08:45:07.714Z,96.52
2023-03-19T08:49:10.862Z,95.87
2023-03-19T08:53:26.844Z,97.00
2023-03-19T08:57:38.605Z,96.91
2023-03-19T09:01:54.197Z,96.29
2023-03-19T09:06:32.428Z,98.15
2023-03-19T09:15:21.028Z,97.46
2023-03-19T09:19:48.193Z,97.38
2023-03-19T09:23:56.926Z,97.23
2023-03-19T09:28:19.736Z,97.05
2023-03-19T09:37:12.837Z,97.53
2023-03-19T09:41:34.676Z,96.50
2023-03-19T09:45:42.895Z,94.91
2023-03-19T09:50:13.435Z,94.86
2023-03-19T09:55:04.870Z,94.11
2023-03-19T09:59:17.534Z,93.95
2023-03-19T10:03:48.935Z,92.88
2023-03-19T10:08:16.754Z,93.94
2023-03-19T10:12:58.766Z,93.28
2023-03-19T10:17:13.653Z,92.56
2023-03-19T10:21:32.564Z,92.40
2023-03-19T10:25:42.861Z,93.64
2023-03-19T10:30:06.924Z,93.18
2023-03-19T10:34:35.693Z,95.25
2023-03-19T10:38:56.875Z,92.70
2023-03-19T10:43:23.897Z,93.81
2023-03-19T10:47:50.939Z,94.88
2023-03-19T10:51:57.753Z,93.44
2023-03-19T10:56:26.094Z,93.27
2023-03-19T11:00:47.703Z,91.79
2023-03-19T11:04:53.391Z,92.43
2023-03-19T11:13:27.842Z,91.29
2023-03-19T11:17:49.718Z,92.19
2023-03-19T11:22:15.046Z,92.62
2023-03-19T11:26:40.243Z,92.65
2023-03-19T11:30:52.304Z,91.49
2023-03-19T11:35:01.543Z,91.74
2023-03-19T11:39:23.211Z,92.73
2023-03-19T11:44:15.582Z,92.21
2023-03-19T11:49:08.333Z,92.00
2023-03-19T11:53:29.642Z,91.17
2023-03-19T12:03:09.983Z,92.34
2023-03-19T12:07:27.302Z,92.18
2023-03-19T12:12:00.089Z,91.05
2023-03-19T12:30:05.371Z,91.93
2023-03-19T12:34:50.087Z,91.95
2023-03-19T12:39:14.920Z,91.10
2023-03-19T12:43:34.344Z,91.30
2023-03-19T12:47:40.272Z,91.71
2023-03-19T12:51:46.774Z,91.26
2023-03-19T12:56:22.369Z,92.79
2023-03-19T13:00:50.292Z,92.31
2023-03-19T13:04:59.392Z,92.47
2023-03-19T13:09:07.145Z,91.46
2023-03-19T13:13:27.248Z,94.07
2023-03-19T13:22:12.647Z,95.71
2023-03-19T13:26:33.523Z,96.33
2023-03-19T13:31:12.654Z,96.07
2023-03-19T13:36:04.370Z,96.78
2023-03-19T13:40:31.175Z,96.91
2023-03-19T13:44:57.903Z,96.11
2023-03-19T13:49:40.616Z,96.57
2023-03-19T13:54:23.276Z,93.85
2023-03-19T13:59:23.497Z,92.68
2023-03-19T14:03:37.785Z,92.34
2023-03-19T14:08:34.217Z,94.65
2023-03-19T14:12:43.806Z,92.61
2023-03-19T14:21:54.989Z,94.79
2023-03-19T14:26:07.058Z,92.85
2023-03-19T14:30:15.038Z,93.46
2023-03-19T14:34:37.033Z,91.51
2023-03-19T14:39:05.211Z,91.69
2023-03-19T14:43:15.601Z,93.81
2023-03-19T14:47:33.300Z,92.33
2023-03-19T14:52:26.391Z,92.61
2023-03-19T14:56:45.949Z,90.84
2023-03-19T15:01:09.859Z,87.41
2023-03-19T15:05:21.819Z,89.80
2023-03-19T15:09:30.111Z,89.27
2023-03-19T15:18:47.071Z,88.88
2023-03-19T15:23:26.288Z,87.93
2023-03-19T15:32:06.622Z,87.59
2023-03-19T15:36:41.612Z,86.74
2023-03-19T15:40:46.897Z,86.99
2023-03-19T15:45:11.005Z,87.87
2023-03-19T15:54:16.241Z,85.62
2023-03-19T15:58:29.367Z,83.93
2023-03-19T16:02:46.383Z,83.77
2023-03-19T16:08:31.970Z,87.21
2023-03-19T16:12:39.794Z,85.89
2023-03-19T16:16:43.519Z,86.83
2023-03-19T16:20:46.465Z,88.25
2023-03-19T16:24:51.765Z,87.57
2023-03-19T16:29:00.907Z,87.49
2023-03-19T16:33:05.278Z,86.42
2023-03-19T16:37:34.793Z,89.43
2023-03-19T16:41:38.968Z,90.10
2023-03-19T16:45:42.531Z,90.81
2023-03-19T16:49:47.351Z,90.27
2023-03-19T16:53:50.840Z,89.16
2023-03-19T16:57:58.709Z,92.11
2023-03-19T17:02:01.521Z,91.39
2023-03-19T17:06:05.388Z,94.16
2023-03-19T17:10:09.054Z,92.19
2023-03-19T17:14:16.740Z,91.94
2023-03-19T17:18:21.633Z,93.91
2023-03-19T17:22:27.624Z,94.27
2023-03-19T17:26:30.631Z,95.72
2023-03-19T17:30:35.429Z,93.73
2023-03-19T17:34:38.624Z,94.14
2023-03-19T17:38:41.867Z,93.99
2023-03-19T17:42:44.518Z,93.28
2023-03-19T17:46:50.003Z,94.56
2023-03-19T17:50:52.858Z,95.67
2023-03-19T17:54:55.609Z,94.39
2023-03-19T17:58:58.835Z,95.83
2023-03-19T18:03:02.944Z,94.33
2023-03-19T18:07:05.708Z,93.10
2023-03-19T18:11:08.562Z,93.53
2023-03-19T18:15:12.349Z,94.47
2023-03-19T18:19:19.271Z,93.94
2023-03-19T18:23:24.009Z,93.60
2023-03-19T18:27:26.808Z,93.93
2023-03-19T18:31:30.450Z,95.60
2023-03-19T18:35:36.114Z,95.49
2023-03-19T18:39:38.835Z,96.96
2023-03-19T18:43:41.547Z,94.53
2023-03-19T18:47:45.899Z,97.13
2023-03-19T18:52:01.708Z,96.00
2023-03-19T18:56:08.117Z,97.44
2023-03-19T19:00:18.071Z,96.66
2023-03-19T19:04:20.888Z,96.58
2023-03-19T19:08:26.831Z,97.55
2023-03-19T19:12:29.578Z,96.78
2023-03-19T19:16:35.490Z,97.03
2023-03-19T19:20:38.097Z,96.84
2023-03-19T19:24:42.145Z,98.40
2023-03-19T19:28:45.022Z,98.05
2023-03-19T19:32:48.155Z,96.58
2023-03-19T19:36:52.389Z,97.18
2023-03-19T19:40:58.350Z,97.77
2023-03-19T19:45:03.176Z,97.93
2023-03-19T19:49:06.386Z,98.57
2023-03-19T19:53:09.633Z,98.34
2023-03-19T19:57:19.773Z,98.87
2023-03-19T20:01:24.360Z,98.03
2023-03-19T20:05:28.745Z,98.21
2023-03-19T20:09:32.071Z,97.31
2023-03-19T20:13:36.635Z,95.91
2023-03-19T20:17:39.452Z,97.17
2023-03-19T20:21:42.475Z,98.10
2023-03-19T20:25:46.069Z,98.74
2023-03-19T20:29:51.143Z,97.12
2023-03-19T20:33:54.290Z,95.54
2023-03-19T20:37:58.178Z,97.87
2023-03-19T20:42:00.988Z,96.53
2023-03-19T20:46:07.850Z,96.21
2023-03-19T20:50:18.379Z,96.99
2023-03-19T20:54:21.446Z,94.85
2023-03-19T20:58:27.509Z,95.56
2023-03-19T21:02:31.750Z,95.11
2023-03-19T21:06:46.293Z,96.81
2023-03-19T21:10:55.012Z,95.26
2023-03-19T21:14:57.817Z,96.21
2023-03-19T21:19:02.551Z,96.86
2023-03-19T21:23:10.796Z,98.71
2023-03-19T21:27:19.684Z,96.22
2023-03-19T21:31:22.752Z,97.45
2023-03-19T21:35:28.761Z,98.68
2023-03-19T21:39:31.854Z,96.66
2023-03-19T21:43:37.065Z,97.23
2023-03-19T21:47:40.536Z,95.81
2023-03-19T21:51:44.938Z,96.26
2023-03-19T21:55:47.750Z,95.67
2023-03-19T21:59:50.494Z,97.18
2023-03-19T22:03:53.669Z,98.99
2023-03-19T22:07:57.917Z,95.38
2023-03-19T22:12:01.394Z,95.15
2023-03-19T22:16:04.637Z,96.75
2023-03-19T22:20:07.870Z,95.60
2023-03-19T22:24:12.040Z,95.33
2023-03-19T22:28:18.308Z,95.79
2023-03-19T22:32:21.196Z,96.44
2023-03-19T22:36:23.923Z,95.63
2023-03-19T22:40:28.615Z,96.35
2023-03-19T22:44:32.376Z,95.04
2023-03-19T22:48:35.697Z,97.49
2023-03-19T22:52:38.480Z,97.65
2023-03-19T22:56:42.609Z,95.63
2023-03-19T23:00:45.864Z,97.78
2023-03-19T23:04:48.933Z,98.68
2023-03-19T23:08:51.760Z,98.59
2023-03-19T23:12:57.182Z,98.68
2023-03-19T23:17:03.115Z,98.30
2023-03-19T23:21:06.854Z,98.22
2023-03-19T23:25:14.997Z,97.54
2023-03-19T23:29:24.450Z,99.27
2023-03-19T23:33:27.705Z,99.63
2023-03-19T23:37:30.854Z,99.62
2023-03-19T23:41:33.613Z,98.03
2023-03-19T23:45:39.094Z,99.03
2023-03-19T23:49:42.193Z,99.69
2023-03-19T23:53:45.907Z,97.01
2023-03-19T23:57:48.880Z,97.44
